• Join FlightAware (Why Join?)
  • Login
  • US Flag 
06:01AM EDT


 

Airport Tracker/Info


-or-


 

Live Flight TrackerFlight Track Log ✈ AAL87 ✈ 07-May-2013 ✈ EGLL / LHR - KORD

Flight Track Log - Related Links

Times and Time Zones

All times are in EDT time to prevent confusion due to time zone crossing. See the AAL87 flight status page for this flight to view local times or setup timezone preferences in your user account.

Time Position Orientation Groundspeed Altitude Reporting Facility
EDT Latitude Longitude Course Direction KTS MPH feet Rate Location/Type
05:44AM 51.4632 -0.3991 1000° North 1,600  Level FlightAware ADS-B
05:44AM 51.4433 -0.3926 169° South 179 206 2,400 1,860 Climbing FlightAware ADS-B
05:44AM 51.4323 -0.4047 215° Southwest 192 221 2,900 2,160 Climbing FlightAware ADS-B
05:45AM 51.4218 -0.4185 219° Southwest 190 219 3,500 1,680 Climbing FlightAware ADS-B
05:45AM 51.4107 -0.4343 222° Southwest 206 237 3,800 900 Climbing FlightAware ADS-B
05:45AM 51.4016 -0.4535 233° Southwest 218 251 4,000 780 Climbing FlightAware ADS-B
05:45AM 51.3992 -0.4805 262° West 246 283 4,200 1,200 Climbing FlightAware ADS-B
05:46AM 51.3988 -0.5095 269° West 263 303 4,600 1,560 Climbing FlightAware ADS-B
05:46AM 51.3988 -0.5402 270° West 279 321 5,000 1,680 Climbing FlightAware ADS-B
05:46AM 51.4011 -0.5750 276° West 286 329 5,500 1,380 Climbing FlightAware ADS-B
05:47AM 51.4045 -0.6092 279° West 286 329 5,800 540 Climbing FlightAware ADS-B
05:47AM 51.4083 -0.6413 281° West 284 327 5,800 180 Level FlightAware ADS-B
05:47AM 51.4121 -0.6741 281° West 286 329 5,900 180 Climbing FlightAware ADS-B
05:47AM 51.4155 -0.7054 280° West 284 327 5,900 360 Level FlightAware ADS-B
05:48AM 51.4188 -0.7376 279° West 284 327 6,100 1,740 Climbing FlightAware ADS-B
05:48AM 51.4218 -0.7700 278° West 285 328 6,800 3,180 Climbing FlightAware ADS-B
05:48AM 51.4248 -0.8012 279° West 279 321 7,700 2,460 Climbing FlightAware ADS-B
05:48AM 51.4285 -0.8336 280° West 280 322 8,100 1,500 Climbing FlightAware ADS-B
05:49AM 51.4354 -0.8647 290° West 293 337 8,500 2,100 Climbing FlightAware ADS-B
05:49AM 51.4435 -0.8950 293° West 291 335 9,200 2,640 Climbing FlightAware ADS-B
05:49AM 51.4540 -0.9333 294° West 295 339 10,000 1,920 Climbing FlightAware ADS-B
05:50AM 51.4715 -0.9994 293° West 314 361 10,800 -360 Climbing FlightAware ADS-B
05:50AM 51.4800 -1.0473 293° West 324 373 9,700 1,140 Descending FlightAware UK
05:50AM 51.4900 -1.0690 293° West 347 399 11,400 3,420 Climbing FlightAware ADS-B
05:51AM 51.5090 -1.1481 291° West 374 430 12,100 240 Climbing FlightAware ADS-B
05:51AM 51.5155 -1.1996 291° West 366 421 11,600 2,700 Descending FlightAware UK
05:51AM 51.5262 -1.2299 291° West 381 438 13,500 4,140 Climbing FlightAware ADS-B
05:52AM 51.5429 -1.3129 288° West 392 451 14,600 60 Climbing FlightAware ADS-B
05:52AM 51.5518 -1.3794 288° West 378 435 13,600 1,560 Descending FlightAware UK
05:52AM 51.5593 -1.3956 288° West 386 444 15,400 2,580 Climbing FlightAware ADS-B
05:53AM 51.5683 -1.4630 288° West 390 449 14,900 2,640 Descending FlightAware UK
05:53AM 51.5884 -1.5472 288° West 396 456 17,800 2,340 Climbing FlightAware ADS-B
05:53AM 51.5940 -1.5984 288° West 400 460 16,800 2,160 Descending FlightAware UK
05:54AM 51.6050 -1.6333 288° West 403 464 18,900 2,160 Climbing FlightAware ADS-B
05:54AM 51.6106 -1.6854 288° West 406 467 17,900 1,920 Descending FlightAware UK
05:54AM 51.6225 -1.7242 288° West 419 482 19,900 4,260 Climbing FlightAware ADS-B
05:55AM 51.6399 -1.8153 287° West 419 482 21,100 2,460 Climbing FlightAware ADS-B
05:55AM 51.6584 -1.9130 287° West 419 482 22,500 2,100 Climbing FlightAware ADS-B
05:56AM 51.6759 -2.0046 287° West 424 488 23,300 420 Climbing FlightAware ADS-B
05:56AM 51.6858 -2.0827 287° West 430 495 22,900 2,580 Descending FlightAware UK
05:56AM 51.6936 -2.1014 287° West 430 495 24,700 3,900 Climbing FlightAware ADS-B
05:57AM 51.7096 -2.1993 285° West 441 507 25,400 -780 Climbing FlightAware ADS-B
05:57AM 51.7122 -2.2510 285° West 446 513 24,100 1,740 Descending FlightAware UK
05:57AM 51.7228 -2.2963 285° West 442 509 26,300 4,080 Climbing FlightAware ADS-B
05:58AM 51.7367 -2.3937 283° West 446 513 27,200 -360 Climbing FlightAware ADS-B
05:58AM 51.7453 -2.4625 283° West 456 525 26,000 1,440 Descending FlightAware UK
05:58AM 51.7570 -2.5010 283° West 27,900 4,920 Climbing FlightAware
05:59AM 51.7683 -2.5531 289° West 454 522 28,400 -360 Climbing FlightAware ADS-B
05:59AM 51.7886 -2.6744 289° West 466 536 27,600 240 Descending FlightAware UK
06:00AM 51.8130 -2.7730 289° West 29,800 1,320 Climbing FlightAware
06:00AM 51.8235 -2.8526 289° West 474 545 28,800 -360 Descending FlightAware UK
06:00AM 51.8360 -2.9080 289° West 30,600 1,140 Climbing FlightAware
06:01AM 51.8417 -2.9750 289° West 478 550 29,500 -1,440 Descending FlightAware UK
06:01AM 51.8507 -3.0365 283° West 480 552 29,800 1,440 Climbing FlightAware UK
06:01AM 51.8580 -3.0580 283° West 31,500 1,560 Climbing FlightAware
06:02AM 51.8790 -3.1980 284° West 32,600 180 Climbing FlightAware
06:02AM 51.8864 -3.2836 284° West 482 555 31,700 60 Descending FlightAware UK
06:03AM 51.8970 -3.3260 284° West 33,800 1,620 Climbing FlightAware
06:03AM 51.9029 -3.4031 284° West 480 552 32,700 -600 Descending FlightAware UK
06:03AM 51.9139 -3.4830 283° West 480 552 33,400 840 Climbing FlightAware UK
06:03AM 51.9170 -3.4770 283° West 34,900 180 Climbing FlightAware
06:04AM 51.9266 -3.5822 283° West 472 543 33,500 -1,500 Descending FlightAware UK
06:04AM 51.9370 -3.6180 283° West 35,000  Climbing FlightAware
06:04AM 51.9413 -3.6797 283° West 474 545 33,500 -2,700 Descending FlightAware UK
06:05AM 51.9503 -3.7395 284° West 476 548 33,500  Level FlightAware UK
06:05AM 51.9590 -3.7680 284° West 35,000  Climbing FlightAware
06:05AM 51.9646 -3.8383 284° West 476 548 33,500 -1,260 Descending FlightAware UK
06:05AM 51.9780 -3.9000 284° West 35,000  Climbing FlightAware
06:06AM 51.9896 -4.0160 284° West 478 550 33,500 -1,320 Descending FlightAware UK
06:06AM 51.9960 -4.0300 284° West 35,000  Climbing FlightAware
06:07AM 52.0061 -4.1350 284° West 478 550 33,500 -1,320 Descending FlightAware UK
06:07AM 52.0160 -4.1720 284° West 35,000  Climbing FlightAware
06:07AM 52.0253 -4.2738 284° West 480 552 33,500 -1,620 Descending FlightAware UK
06:07AM 52.0350 -4.3090 284° West 35,000  Climbing FlightAware
06:08AM 52.0389 -4.3728 284° West 480 552 33,500 -1,200 Descending FlightAware UK
06:08AM 52.0550 -4.4550 284° West 35,000  Climbing FlightAware
06:09AM 52.0657 -4.5694 284° West 478 550 33,500 -1,260 Descending FlightAware UK
06:09AM 52.0720 -4.5870 284° West 35,000  Climbing FlightAware
06:09AM 52.0842 -4.7071 284° West 478 550 33,500 -1,500 Descending FlightAware UK
06:10AM 52.0920 -4.7320 284° West 35,000  Climbing FlightAware
06:10AM 52.0972 -4.8056 284° West 478 550 33,500 -2,580 Descending FlightAware UK
06:10AM 52.1050 -4.8647 282° West 478 550 33,500  Level FlightAware UK
06:10AM 52.1100 -4.8670 282° West 35,000  Climbing FlightAware
06:11AM 52.1154 -4.9428 282° West 478 550 33,500 -2,460 Descending FlightAware UK
06:11AM 52.1233 -5.0019 282° West 478 550 33,500  Level FlightAware UK
06:11AM 52.1270 -4.9940 282° West 35,000  Climbing FlightAware
06:11AM 52.1336 -5.0807 282° West 476 548 33,500 -1,320 Descending FlightAware UK
06:12AM 52.1480 -5.1480 282° West 35,000  Climbing FlightAware
06:12AM 52.1581 -5.2360 282° West 476 548 33,500 -1,380 Descending FlightAware UK
06:12AM 52.1700 -5.2730 282° West 35,000  Climbing FlightAware
06:13AM 52.1834 -5.3707 282° West 474 545 33,500 -780 Descending FlightAware UK
06:13AM 52.1970 -5.4160 282° West 35,000  Climbing FlightAware
06:14AM 52.2210 -5.5430 287° West 35,000 -1,200 Level FlightAware
06:14AM 52.2439 -5.6761 287° West 472 543 33,500 -1,680 Descending FlightAware UK
06:14AM 52.2490 -5.6760 287° West 35,000  Climbing FlightAware
06:15AM 52.2597 -5.7307 287° West 474 545 33,500 -2,760 Descending FlightAware UK
06:15AM 52.2780 -5.7837 299° West 472 543 33,500  Level FlightAware UK
06:15AM 52.2910 -5.8070 299° West 35,000  Climbing FlightAware
06:16AM 52.3091 -5.8716 299° West 472 543 33,500 -2,520 Descending FlightAware UK
06:16AM 52.3279 -5.9241 300° West 470 541 33,500  Level FlightAware UK
06:16AM 52.3340 -5.9280 300° West 35,000  Climbing FlightAware
06:16AM 52.3531 -5.9943 300° West 472 543 33,500 -2,400 Descending FlightAware UK
06:17AM 52.3716 -6.0466 300° West 472 543 33,500  Level FlightAware UK
06:17AM 52.3800 -6.0560 300° West 35,000  Climbing FlightAware
06:17AM 52.3965 -6.1174 300° West 472 543 33,500 -2,580 Descending FlightAware UK
06:17AM 52.4152 -6.1707 300° West 472 543 33,500  Level FlightAware UK
06:17AM 52.4230 -6.1780 300° West 35,000  Climbing FlightAware
06:18AM 52.4400 -6.2419 300° West 474 545 33,500 -2,460 Descending FlightAware UK
06:18AM 52.4586 -6.2954 300° West 474 545 33,500  Level FlightAware UK
06:18AM 52.4640 -6.2970 300° West 35,000  Climbing FlightAware
06:18AM 52.4772 -6.3490 300° West 474 545 33,500 -2,760 Descending FlightAware UK
06:19AM 52.4958 -6.4027 300° West 474 545 33,500  Level FlightAware UK
06:19AM 52.5090 -6.4280 300° West 35,000  Climbing FlightAware
06:19AM 52.5269 -6.4921 300° West 474 545 33,500 -2,520 Descending FlightAware UK
06:19AM 52.5454 -6.5459 300° West 474 545 33,500  Level FlightAware UK
06:19AM 52.5510 -6.5490 300° West 35,000  Climbing FlightAware
06:20AM 52.5701 -6.6176 300° West 474 545 33,500 -2,400 Descending FlightAware UK
06:20AM 52.5885 -6.6716 299° West 474 545 33,500  Level FlightAware UK
06:20AM 52.6070 -6.7110 299° West 35,000  Climbing FlightAware
06:21AM 52.6255 -6.7796 299° West 476 548 33,500 -2,460 Descending FlightAware UK
06:21AM 52.6439 -6.8336 299° West 472 543 33,500  Level FlightAware UK
06:21AM 52.6550 -6.8520 299° West 35,000  Climbing FlightAware
06:21AM 52.6685 -6.9057 299° West 474 545 33,500 -2,700 Descending FlightAware UK
06:22AM 52.6870 -6.9599 299° West 472 543 33,500  Level FlightAware UK
06:22AM 52.6960 -6.9710 299° West 35,000  Climbing FlightAware
06:22AM 52.7114 -7.0323 299° West 472 543 33,500 -2,520 Descending FlightAware UK
06:22AM 52.7298 -7.0868 299° West 472 543 33,500  Level FlightAware UK
06:22AM 52.7410 -7.1060 299° West 35,000  Climbing FlightAware
06:23AM 52.7542 -7.1595 299° West 472 543 33,500 -2,760 Descending FlightAware UK
06:23AM 52.7725 -7.2143 299° West 474 545 33,500  Level FlightAware UK
06:23AM 52.7820 -7.2270 299° West 35,000  Climbing FlightAware
06:23AM 52.7968 -7.2867 299° West 472 543 33,500 -2,580 Descending FlightAware UK
06:24AM 52.8152 -7.3416 299° West 474 545 33,500  Level FlightAware UK
06:24AM 52.8210 -7.3450 299° West 35,000  Climbing FlightAware
06:24AM 52.8397 -7.4149 299° West 474 545 33,500 -2,460 Descending FlightAware UK
06:24AM 52.8581 -7.4699 299° West 474 545 33,500  Level FlightAware UK
06:25AM 52.8690 -7.4890 299° West 35,000  Climbing FlightAware
06:25AM 52.8824 -7.5434 299° West 474 545 33,500 -2,700 Descending FlightAware UK
06:25AM 52.9006 -7.5987 299° West 472 543 33,500  Level FlightAware UK
06:25AM 52.9090 -7.6080 299° West 35,000  Climbing FlightAware
06:26AM 52.9249 -7.6724 299° West 474 545 33,500 -2,520 Descending FlightAware UK
06:26AM 52.9431 -7.7277 299° West 474 545 33,500  Level FlightAware UK
06:26AM 52.9540 -7.7440 299° West 35,000  Climbing FlightAware
06:26AM 52.9674 -7.8017 299° West 474 545 33,500 -2,760 Descending FlightAware UK
06:27AM 52.9856 -7.8573 299° West 474 545 33,500  Level FlightAware UK
06:27AM 52.9940 -7.8690 299° West 35,000  Climbing FlightAware
06:27AM 53.0099 -7.9315 299° West 474 545 33,500 -2,580 Descending FlightAware UK
06:27AM 53.0280 -7.9874 298° West 474 545 33,500  Level FlightAware UK
06:27AM 53.0370 -7.9980 298° West 35,000  Climbing FlightAware
06:28AM 53.0590 -8.0798 298° West 474 545 33,500 -1,800 Descending FlightAware UK
06:28AM 53.0680 -8.0930 298° West 35,000  Climbing FlightAware
06:28AM 53.0897 -8.1727 298° West 478 550 33,500 -2,400 Descending FlightAware UK
06:29AM 53.1081 -8.2286 299° West 474 545 33,500  Level FlightAware UK
06:29AM 53.1190 -8.2460 299° West 35,000  Climbing FlightAware
06:29AM 53.1690 -8.3950 299° West 35,000 -1,380 Level FlightAware
06:30AM 53.1880 -8.4699 299° West 476 548 33,500 -2,340 Descending FlightAware UK
06:30AM 53.2063 -8.5260 299° West 474 545 33,500  Level FlightAware UK
06:30AM 53.2180 -8.5440 299° West 35,000  Climbing FlightAware
06:31AM 53.2373 -8.6194 299° West 474 545 33,500 -2,460 Descending FlightAware UK
06:31AM 53.2560 -8.6754 299° West 474 545 33,500  Level FlightAware UK
06:31AM 53.2630 -8.6820 299° West 35,000  Climbing FlightAware
06:31AM 53.2806 -8.7504 299° West 474 545 33,500 -2,700 Descending FlightAware UK
06:32AM 53.2990 -8.8067 299° West 472 543 33,500  Level FlightAware UK
06:32AM 53.3090 -8.8220 299° West 35,000  Climbing FlightAware
06:32AM 53.3301 -8.9002 299° West 472 543 33,500 -2,460 Descending FlightAware UK
06:32AM 53.3485 -8.9567 299° West 474 545 33,500  Level FlightAware UK
06:32AM 53.3510 -8.9490 299° West 35,000  Climbing FlightAware
06:33AM 53.3660 -9.0144 299° West 474 545 33,500  Descending FlightAware UK
06:33AM 53.3950 -9.0910 299° West 35,000  Climbing FlightAware
06:34AM 53.4290 -9.2050 297° West 35,000  Level FlightAware
06:34AM 53.4700 -9.3370 298° West 35,000  Level FlightAware
06:35AM 53.5070 -9.4590 297° West 35,000  Level FlightAware
06:36AM 53.5490 -9.5970 297° West 35,000  Level FlightAware
06:37AM 53.6100 -9.7990 297° West 35,000  Level FlightAware
06:38AM 53.6540 -9.9470 297° West 35,000  Level FlightAware
06:38AM 53.6930 -10.0770 297° West 35,000  Level FlightAware
06:39AM 53.7310 -10.2070 296° West 35,000  Level FlightAware
06:40AM 53.7740 -10.3530 297° West 35,000  Level FlightAware
06:40AM 53.8110 -10.4810 296° West 35,000  Level FlightAware
06:41AM 53.8500 -10.6130 297° West 35,000  Level FlightAware
06:42AM 53.8930 -10.7630 296° West 35,000  Level FlightAware
06:42AM 53.9290 -10.8890 296° West 35,000  Level FlightAware
06:43AM 53.9740 -11.0450 296° West 35,000  Level FlightAware
06:44AM 54.0070 -11.1620 296° West 35,000  Level FlightAware
06:45AM 54.0510 -11.3200 295° West 35,000  Level FlightAware
06:46AM 54.1030 -11.5040 296° West 35,000  Level FlightAware
06:46AM 54.1400 -11.6360 296° West 35,000  Level FlightAware
06:47AM 54.1830 -11.7940 295° West 35,000  Level FlightAware
06:48AM 54.2300 -11.9640 295° West 35,000  Level FlightAware
06:48AM 54.2620 -12.0790 296° West 35,000  Level FlightAware
06:49AM 54.3090 -12.2530 295° West 35,000  Level FlightAware
06:50AM 54.3460 -12.3910 295° West 35,000  Level FlightAware
06:51AM 54.3840 -12.5320 295° West 35,000  Level FlightAware
06:51AM 54.4210 -12.6720 294° West 35,000  Level FlightAware
06:52AM 54.4570 -12.8080 295° West 35,000  Level FlightAware
06:53AM 54.5020 -12.9780 295° West 35,000  Level FlightAware
06:54AM 54.5430 -13.1360 294° West 35,000  Level FlightAware
06:54AM 54.5760 -13.2630 294° West 35,000  Level FlightAware
06:55AM 54.6100 -13.3970 294° West 35,000  Level FlightAware
06:56AM 54.6490 -13.5490 294° West 35,000  Level FlightAware
06:57AM 54.6870 -13.6950 294° West 35,000  Level FlightAware
06:59AM 54.7561 -14.0847 287° West  Level Estimated
07:00AM 54.7907 -14.2834 287° West  Level Estimated
07:01AM 54.8250 -14.4824 287° West  Level Estimated
07:02AM 54.8590 -14.6818 287° West  Level Estimated
07:03AM 54.8926 -14.8814 286° West  Level Estimated
07:04AM 54.9259 -15.0815 286° West  Level Estimated
07:05AM 54.9589 -15.2818 286° West  Level Estimated
07:06AM 54.9916 -15.4825 286° West  Level Estimated
07:07AM 55.0239 -15.6835 286° West  Level Estimated
07:08AM 55.0559 -15.8848 286° West  Level Estimated
07:09AM 55.0876 -16.0864 285° West  Level Estimated
07:10AM 55.1189 -16.2884 285° West  Level Estimated
07:11AM 55.1508 -16.4966 285° West  Level Estimated
07:12AM 55.1824 -16.7052 285° West  Level Estimated
07:13AM 55.2136 -16.9140 285° West  Level Estimated
07:14AM 55.2444 -17.1232 285° West  Level Estimated
07:15AM 55.2749 -17.3327 284° West  Level Estimated
07:16AM 55.3050 -17.5426 284° West  Level Estimated
07:17AM 55.3348 -17.7527 284° West  Level Estimated
07:18AM 55.3642 -17.9632 284° West  Level Estimated
07:19AM 55.3932 -18.1740 284° West  Level Estimated
07:20AM 55.4219 -18.3851 284° West  Level Estimated
07:21AM 55.4502 -18.5965 283° West  Level Estimated
07:22AM 55.4781 -18.8082 283° West  Level Estimated
07:23AM 55.5057 -19.0202 283° West  Level Estimated
07:24AM 55.5329 -19.2325 283° West  Level Estimated
07:25AM 55.5598 -19.4450 283° West  Level Estimated
07:26AM 55.5862 -19.6579 282° West  Level Estimated
07:26AM 55.0000 -20.0000 274° West 458 527 35,000  Level ETMS Enhanced Traffic Management System
07:27AM 55.6117 -19.8655 282° West  Level Estimated
07:28AM 55.6367 -20.0734 282° West  Level Estimated
07:29AM 55.6615 -20.2816 282° West  Level Estimated
07:30AM 55.6858 -20.4900 282° West  Level Estimated
07:31AM 55.7099 -20.6987 282° West  Level Estimated
07:32AM 55.0474 -21.3304 273° West 458 527 35,000  Level FlightAware Transoceanic
07:33AM 55.0538 -21.5525 273° West 458 527 35,000  Level FlightAware Transoceanic
07:34AM 55.0599 -21.7746 273° West 458 527 35,000  Level FlightAware Transoceanic
07:35AM 55.0656 -21.9967 272° West 458 527 35,000  Level FlightAware Transoceanic
07:36AM 55.0709 -22.2189 272° West 458 527 35,000  Level FlightAware Transoceanic
07:37AM 55.0757 -22.4412 272° West 458 527 35,000  Level FlightAware Transoceanic
07:38AM 55.0802 -22.6635 272° West 458 527 35,000  Level FlightAware Transoceanic
07:39AM 55.0843 -22.8859 272° West 458 527 35,000  Level FlightAware Transoceanic
07:40AM 55.0879 -23.1083 272° West 458 527 35,000  Level FlightAware Transoceanic
07:41AM 55.0912 -23.3308 271° West 458 527 35,000  Level FlightAware Transoceanic
07:42AM 55.0940 -23.5533 271° West 458 527 35,000  Level FlightAware Transoceanic
07:43AM 55.0964 -23.7758 271° West 458 527 35,000  Level FlightAware Transoceanic
07:44AM 55.0985 -23.9984 271° West 458 527 35,000  Level FlightAware Transoceanic
07:45AM 55.1001 -24.2209 271° West 458 527 35,000  Level FlightAware Transoceanic
07:46AM 55.1013 -24.4435 270° West 458 527 35,000  Level FlightAware Transoceanic
07:47AM 55.1021 -24.6661 270° West 458 527 35,000  Level FlightAware Transoceanic
07:48AM 55.1025 -24.8887 270° West 458 527 35,000  Level FlightAware Transoceanic
07:49AM 55.1025 -25.1113 270° West 458 527 35,000  Level FlightAware Transoceanic
07:50AM 55.1021 -25.3339 270° West 458 527 35,000  Level FlightAware Transoceanic
07:51AM 55.1013 -25.5565 270° West 458 527 35,000  Level FlightAware Transoceanic
07:52AM 55.1001 -25.7791 269° West 458 527 35,000  Level FlightAware Transoceanic
07:53AM 55.0985 -26.0016 269° West 458 527 35,000  Level FlightAware Transoceanic
07:54AM 55.0964 -26.2242 269° West 458 527 35,000  Level FlightAware Transoceanic
07:55AM 55.0940 -26.4467 269° West 458 527 35,000  Level FlightAware Transoceanic
07:56AM 55.0912 -26.6692 269° West 458 527 35,000  Level FlightAware Transoceanic
07:57AM 55.0879 -26.8917 268° West 458 527 35,000  Level FlightAware Transoceanic
07:58AM 55.0843 -27.1141 268° West 458 527 35,000  Level FlightAware Transoceanic
07:59AM 55.0802 -27.3365 268° West 458 527 35,000  Level FlightAware Transoceanic
08:00AM 55.0757 -27.5588 268° West 458 527 35,000  Level FlightAware Transoceanic
08:01AM 55.0709 -27.7811 268° West 458 527 35,000  Level FlightAware Transoceanic
08:02AM 55.0656 -28.0033 268° West 458 527 35,000  Level FlightAware Transoceanic
08:03AM 55.0599 -28.2254 267° West 458 527 35,000  Level FlightAware Transoceanic
08:04AM 55.0538 -28.4475 267° West 458 527 35,000  Level FlightAware Transoceanic
08:05AM 55.0474 -28.6696 267° West 458 527 35,000  Level FlightAware Transoceanic
08:06AM 55.0405 -28.8915 267° West 458 527 35,000  Level FlightAware Transoceanic
08:07AM 55.0332 -29.1134 267° West 458 527 35,000  Level FlightAware Transoceanic
08:08AM 55.0255 -29.3352 266° West 458 527 35,000  Level FlightAware Transoceanic
08:09AM 55.0174 -29.5569 266° West 458 527 35,000  Level FlightAware Transoceanic
08:10AM 55.0089 -29.7785 266° West 458 527 35,000  Level FlightAware Transoceanic
08:11AM 55.0005 -29.9873 266° West  Level FlightAware Approximate
08:12AM 54.9918 -30.1959 266° West  Level FlightAware Approximate
08:13AM 54.9731 -30.1776 255° West  Level FlightAware Approximate
08:14AM 54.9420 -30.3808 255° West  Level FlightAware Approximate
08:15AM 54.9106 -30.5837 255° West  Level FlightAware Approximate
08:16AM 54.8788 -30.7863 255° West  Level FlightAware Approximate
08:17AM 54.8467 -30.9886 255° West  Level FlightAware Approximate
08:18AM 54.8142 -31.1906 254° West  Level FlightAware Approximate
08:19AM 54.7814 -31.3922 254° West  Level FlightAware Approximate
08:20AM 54.7483 -31.5935 254° West  Level FlightAware Approximate
08:21AM 54.7149 -31.7945 254° West  Level FlightAware Approximate
08:22AM 54.6811 -31.9951 254° West  Level FlightAware Approximate
08:23AM 54.6470 -32.1954 254° West  Level FlightAware Approximate
08:24AM 54.6125 -32.3954 254° West  Level FlightAware Approximate
08:25AM 54.5777 -32.5950 253° West  Level FlightAware Approximate
08:26AM 54.5426 -32.7943 253° West  Level FlightAware Approximate
08:27AM 54.5072 -32.9932 253° West  Level FlightAware Approximate
08:28AM 54.4714 -33.1918 253° West  Level FlightAware Approximate
08:29AM 54.4354 -33.3901 253° West  Level FlightAware Approximate
08:30AM 54.3989 -33.5880 253° West  Level FlightAware Approximate
08:31AM 54.3622 -33.7855 252° West  Level FlightAware Approximate
08:32AM 54.3252 -33.9827 252° West  Level FlightAware Approximate
08:33AM 54.2878 -34.1795 252° West  Level FlightAware Approximate
08:34AM 54.2501 -34.3760 252° West  Level FlightAware Approximate
08:35AM 54.2121 -34.5721 252° West  Level FlightAware Approximate
08:36AM 54.1738 -34.7679 252° West  Level FlightAware Approximate
08:37AM 54.1351 -34.9633 251° West  Level FlightAware Approximate
08:38AM 54.0962 -35.1583 251° West  Level FlightAware Approximate
08:39AM 54.0569 -35.3529 251° West  Level FlightAware Approximate
08:40AM 54.0173 -35.5472 251° West  Level FlightAware Approximate
08:41AM 53.9774 -35.7411 251° West  Level FlightAware Approximate
08:42AM 53.9372 -35.9347 251° West  Level FlightAware Approximate
08:43AM 53.8967 -36.1278 250° West  Level FlightAware Approximate
08:44AM 53.8558 -36.3206 250° West  Level FlightAware Approximate
08:45AM 53.8147 -36.5130 250° West  Level FlightAware Approximate
08:46AM 53.7732 -36.7051 250° West  Level FlightAware Approximate
08:47AM 53.7315 -36.8967 250° West  Level FlightAware Approximate
08:48AM 53.6894 -37.0880 250° West  Level FlightAware Approximate
08:49AM 53.6470 -37.2789 250° West  Level FlightAware Approximate
08:50AM 53.6044 -37.4694 249° West  Level FlightAware Approximate
08:51AM 53.5614 -37.6595 249° West  Level FlightAware Approximate
08:52AM 53.5181 -37.8492 249° West  Level FlightAware Approximate
08:53AM 53.4746 -38.0386 249° West  Level FlightAware Approximate
08:54AM 53.4307 -38.2275 249° West  Level FlightAware Approximate
08:55AM 53.3865 -38.4161 249° West  Level FlightAware Approximate
08:56AM 53.3421 -38.6043 248° West  Level FlightAware Approximate
08:57AM 53.2973 -38.7920 248° West  Level FlightAware Approximate
08:58AM 53.2523 -38.9794 248° West  Level FlightAware Approximate
08:59AM 53.2069 -39.1664 248° West  Level FlightAware Approximate
09:00AM 53.1613 -39.3530 248° West  Level FlightAware Approximate
09:01AM 53.1153 -39.5392 248° West  Level FlightAware Approximate
09:02AM 53.0694 -39.7238 248° West  Level FlightAware Approximate
09:03AM 53.0232 -39.9081 247° West  Level FlightAware Approximate
09:04AM 52.9854 -40.0969 256° West  Level FlightAware Approximate
09:05AM 52.9560 -40.2901 256° West  Level FlightAware Approximate
09:06AM 52.9264 -40.4831 256° West  Level FlightAware Approximate
09:07AM 52.8964 -40.6758 256° West  Level FlightAware Approximate
09:08AM 52.8661 -40.8683 255° West  Level FlightAware Approximate
09:09AM 52.8354 -41.0604 255° West  Level FlightAware Approximate
09:10AM 52.8045 -41.2523 255° West  Level FlightAware Approximate
09:11AM 52.7733 -41.4440 255° West  Level FlightAware Approximate
09:12AM 52.7417 -41.6353 255° West  Level FlightAware Approximate
09:13AM 52.7099 -41.8264 255° West  Level FlightAware Approximate
09:14AM 52.6777 -42.0172 255° West  Level FlightAware Approximate
09:15AM 52.6453 -42.2077 254° West  Level FlightAware Approximate
09:16AM 52.6125 -42.3980 254° West  Level FlightAware Approximate
09:17AM 52.5794 -42.5879 254° West  Level FlightAware Approximate
09:18AM 52.5461 -42.7776 254° West  Level FlightAware Approximate
09:19AM 52.5124 -42.9669 254° West  Level FlightAware Approximate
09:20AM 52.4784 -43.1560 254° West  Level FlightAware Approximate
09:21AM 52.4441 -43.3448 253° West  Level FlightAware Approximate
09:22AM 52.4095 -43.5333 253° West  Level FlightAware Approximate
09:23AM 52.3747 -43.7215 253° West  Level FlightAware Approximate
09:24AM 52.3395 -43.9094 253° West  Level FlightAware Approximate
09:25AM 52.3040 -44.0970 253° West  Level FlightAware Approximate
09:26AM 52.2682 -44.2843 253° West  Level FlightAware Approximate
09:27AM 52.2322 -44.4712 253° West  Level FlightAware Approximate
09:28AM 52.1958 -44.6579 252° West  Level FlightAware Approximate
09:29AM 52.1591 -44.8443 252° West  Level FlightAware Approximate
09:30AM 52.1222 -45.0304 252° West  Level FlightAware Approximate
09:31AM 52.0849 -45.2161 252° West  Level FlightAware Approximate
09:32AM 52.0474 -45.4016 252° West  Level FlightAware Approximate
09:33AM 52.0096 -45.5867 252° West  Level FlightAware Approximate
09:34AM 51.9715 -45.7715 252° West  Level FlightAware Approximate
09:35AM 51.9331 -45.9561 251° West  Level FlightAware Approximate
09:36AM 51.8944 -46.1403 251° West  Level FlightAware Approximate
09:37AM 51.8554 -46.3241 251° West  Level FlightAware Approximate
09:38AM 51.8161 -46.5077 251° West  Level FlightAware Approximate
09:39AM 51.7766 -46.6909 251° West  Level FlightAware Approximate
09:40AM 51.7368 -46.8738 251° West  Level FlightAware Approximate
09:41AM 51.6966 -47.0564 251° West  Level FlightAware Approximate
09:42AM 51.6562 -47.2387 250° West  Level FlightAware Approximate
09:43AM 51.6156 -47.4206 250° West  Level FlightAware Approximate
09:44AM 51.5746 -47.6022 250° West  Level FlightAware Approximate
09:45AM 51.5334 -47.7835 250° West  Level FlightAware Approximate
09:46AM 51.4918 -47.9644 250° West  Level FlightAware Approximate
09:47AM 51.4500 -48.1451 250° West  Level FlightAware Approximate
09:48AM 51.4080 -48.3254 250° West  Level FlightAware Approximate
09:49AM 51.3656 -48.5053 249° West  Level FlightAware Approximate
09:50AM 51.3230 -48.6849 249° West  Level FlightAware Approximate
09:51AM 51.2801 -48.8642 249° West  Level FlightAware Approximate
09:52AM 51.2369 -49.0432 249° West  Level FlightAware Approximate
09:53AM 51.1935 -49.2218 249° West  Level FlightAware Approximate
09:54AM 51.1497 -49.4001 249° West  Level FlightAware Approximate
09:55AM 51.1057 -49.5780 249° West  Level FlightAware Approximate
09:56AM 51.0615 -49.7556 248° West  Level FlightAware Approximate
09:57AM 51.0169 -49.9332 248° West  Level FlightAware Approximate
09:58AM 50.9637 -50.0873 250° West  Level FlightAware Approximate
09:58AM 50.9167 -50.3500 250° West 430 495 35,000  Level Gander Center
09:59AM 50.9222 -50.2705 250° West  Level FlightAware Approximate
09:59AM 50.8500 -50.5333 240° Southwest 430 495 35,000  Level Moncton Center
10:00AM 50.8804 -50.4533 250° West  Level FlightAware Approximate
10:00AM 50.8333 -50.7333 263° West 430 495 35,000  Level Moncton Center
10:01AM 50.8383 -50.6358 250° West  Level FlightAware Approximate
10:01AM 50.8000 -50.9000 252° West 430 495 35,000  Level Moncton Center
10:02AM 50.7960 -50.8180 250° West  Level FlightAware Approximate
10:02AM 50.7667 -51.1000 255° West 430 495 35,000  Level Moncton Center
10:03AM 50.7533 -50.9999 250° West  Level FlightAware Approximate
10:03AM 50.7667 -51.3000 270° West 430 495 35,000  Level Gander Center
10:04AM 50.7333 -51.4833 254° West 430 495 35,000  Level Gander Center
10:05AM 50.6833 -51.6500 245° Southwest 430 495 35,000  Level Gander Center
10:11AM 50.5180 -52.7800 245° Southwest 475 547 35,000  Level FlightAware
10:12AM 50.4870 -52.9520 254° West 473 544 35,000  Level FlightAware
10:12AM 50.4580 -53.1090 254° West 475 547 35,000  Level FlightAware
10:13AM 50.4390 -53.2140 254° West 474 545 35,000  Level FlightAware
10:14AM 50.4110 -53.3700 254° West 474 545 35,000  Level FlightAware
10:14AM 50.3880 -53.4920 254° West 474 545 35,000  Level FlightAware
10:15AM 50.3660 -53.6110 254° West 476 548 35,000  Level FlightAware
10:16AM 50.3410 -53.7460 254° West 474 545 35,000  Level FlightAware
10:17AM 50.3180 -53.8660 253° West 474 545 35,000  Level FlightAware
10:17AM 50.2940 -53.9930 254° West 473 544 35,000  Level FlightAware
10:18AM 50.2700 -54.1170 253° West 473 544 35,000  Level FlightAware
10:19AM 50.2470 -54.2370 253° West 472 543 35,000  Level FlightAware
10:19AM 50.2210 -54.3720 253° West 472 543 35,000  Level FlightAware
10:20AM 50.1990 -54.4840 253° West 470 541 35,000  Level FlightAware
10:21AM 50.1740 -54.6090 253° West 472 543 35,000  Level FlightAware
10:21AM 50.1480 -54.7420 253° West 474 545 35,000  Level FlightAware
10:22AM 50.1240 -54.8630 253° West 473 544 35,000  Level FlightAware
10:23AM 50.0980 -54.9940 253° West 473 544 35,000  Level FlightAware
10:24AM 50.0750 -55.1070 252° West 472 543 35,000  Level FlightAware
10:24AM 50.0470 -55.2460 253° West 473 544 35,000  Level FlightAware
10:25AM 50.0220 -55.3650 252° West 472 543 35,000  Level FlightAware
10:26AM 49.9980 -55.4830 252° West 473 544 35,000  Level FlightAware
10:26AM 49.9740 -55.5980 252° West 471 542 35,000  Level FlightAware
10:27AM 49.9460 -55.7320 252° West 472 543 35,000  Level FlightAware
10:28AM 49.9220 -55.8460 252° West 475 547 35,000  Level FlightAware
10:28AM 49.9010 -55.9460 252° West 474 545 35,000  Level FlightAware
10:29AM 49.8680 -56.1010 252° West 473 544 35,000  Level FlightAware
10:30AM 49.8410 -56.2310 252° West 472 543 35,000  Level FlightAware
10:30AM 49.8180 -56.3370 251° West 470 541 35,000  Level FlightAware
10:31AM 49.7940 -56.4470 251° West 472 543 35,000  Level FlightAware
10:32AM 49.7640 -56.5830 251° West 474 545 35,000  Level FlightAware
10:33AM 49.7390 -56.7100 253° West 474 545 35,000  Level FlightAware
10:33AM 49.7090 -56.8440 251° West 470 541 35,000  Level FlightAware
10:34AM 49.6880 -56.9530 253° West 470 541 35,000  Level FlightAware
10:35AM 49.6660 -57.0630 253° West 470 541 35,000  Level FlightAware
10:35AM 49.6440 -57.1720 253° West 470 541 35,000  Level FlightAware
10:36AM 49.6230 -57.2810 253° West 470 541 35,000  Level FlightAware
10:37AM 49.5790 -57.4160 243° Southwest 35,000  Level FlightAware
10:37AM 49.5730 -57.4440 252° West 478 550 35,000  Level FlightAware
10:38AM 49.5420 -57.5780 250° West 473 544 35,000  Level FlightAware
10:38AM 49.5210 -57.6770 252° West 473 544 35,000  Level FlightAware
10:39AM 49.4920 -57.7970 250° West 472 543 35,000  Level FlightAware
10:40AM 49.4650 -57.9220 252° West 472 543 35,000  Level FlightAware
10:40AM 49.4370 -58.0580 252° West 472 543 35,000  Level FlightAware
10:41AM 49.4140 -58.1660 252° West 472 543 35,000  Level FlightAware
10:42AM 49.3910 -58.2750 252° West 472 543 35,000  Level FlightAware
10:42AM 49.3680 -58.3830 252° West 472 543 35,000  Level FlightAware
10:43AM 49.3450 -58.4920 252° West 472 543 35,000  Level FlightAware
10:44AM 49.3160 -58.6270 252° West 472 543 35,000  Level FlightAware
10:45AM 49.2560 -58.7960 242° Southwest 35,000  Level FlightAware
10:45AM 49.2520 -58.8130 250° West 473 544 35,000  Level FlightAware
10:46AM 49.2090 -58.9890 250° West 474 545 35,000  Level FlightAware
10:46AM 49.1820 -59.1130 252° West 474 545 35,000  Level FlightAware
10:47AM 49.1450 -59.2540 248° West 474 545 35,000  Level FlightAware
10:48AM 49.1210 -59.3510 249° West 474 545 35,000  Level FlightAware
10:48AM 49.0900 -59.4740 249° West 473 544 35,000  Level FlightAware
10:49AM 49.0620 -59.5970 251° West 473 544 35,000  Level FlightAware
10:50AM 49.0380 -59.7050 251° West 473 544 35,000  Level FlightAware
10:51AM 49.0140 -59.8120 251° West 473 544 35,000  Level FlightAware
10:51AM 48.9900 -59.9190 251° West 473 544 35,000  Level FlightAware
10:52AM 48.9590 -60.0530 251° West 473 544 35,000  Level FlightAware
10:53AM 48.9350 -60.1600 251° West 473 544 35,000  Level FlightAware
10:53AM 48.9110 -60.2670 251° West 473 544 35,000  Level FlightAware
10:54AM 48.8870 -60.3740 251° West 473 544 35,000  Level FlightAware
10:55AM 48.8630 -60.4810 251° West 473 544 35,000  Level FlightAware
10:56AM 48.8320 -60.6150 251° West 473 544 35,000  Level FlightAware
10:56AM 48.8080 -60.7220 251° West 473 544 35,000  Level FlightAware
10:57AM 48.7840 -60.8280 251° West 473 544 35,000  Level FlightAware
10:58AM 48.7600 -60.9350 251° West 473 544 35,000  Level FlightAware
10:58AM 48.7350 -61.0420 251° West 473 544 35,000  Level FlightAware
10:59AM 48.6167 -61.2333 251° West 440 506 35,000  Level Moncton Center
11:00AM 48.5667 -61.4167 248° West 440 506 35,000  Level Moncton Center
11:01AM 48.5167 -61.5833 246° West 440 506 35,000  Level Moncton Center
11:02AM 48.4833 -61.7333 252° West 440 506 35,000  Level Gander Center
11:03AM 48.4333 -61.9333 249° West 440 506 35,000  Level Gander Center
11:04AM 48.3833 -62.0833 243° Southwest 440 506 35,000  Level Gander Center
11:05AM 48.3333 -62.2667 248° West 440 506 35,000  Level Gander Center
11:06AM 48.3000 -62.4333 253° West 450 518 35,000  Level Gander Center
11:07AM 48.2333 -62.6167 241° Southwest 440 506 35,000  Level Gander Center
11:08AM 48.1833 -62.7833 246° West 450 518 35,000  Level Gander Center
11:09AM 48.1500 -62.9500 253° West 440 506 35,000  Level Moncton Center
11:10AM 48.1000 -63.1167 246° West 450 518 35,000  Level Moncton Center
11:11AM 48.0500 -63.3000 248° West 450 518 35,000  Level Moncton Center
11:12AM 48.0000 -63.4667 246° West 450 518 35,000  Level Moncton Center
11:13AM 47.9500 -63.6167 244° Southwest 440 506 35,000  Level Moncton Center
11:14AM 47.9000 -63.8000 248° West 440 506 35,000  Level Moncton Center
11:15AM 47.8500 -63.9667 246° West 440 506 35,000  Level Moncton Center
11:16AM 47.8000 -64.1167 244° Southwest 440 506 35,000  Level Moncton Center
11:17AM 47.7333 -64.3000 242° Southwest 440 506 35,000  Level Moncton Center
11:18AM 47.6833 -64.4667 246° West 450 518 35,000  Level Moncton Center
11:19AM 47.6333 -64.6500 248° West 440 506 35,000  Level Moncton Center
11:20AM 47.5833 -64.8167 246° West 450 518 35,000  Level Moncton Center
11:21AM 47.5333 -65.0000 248° West 450 518 35,000  Level Moncton Center
11:22AM 47.4833 -65.1333 241° Southwest 450 518 35,000  Level Moncton Center
11:23AM 47.4333 -65.3167 248° West 450 518 35,000  Level Moncton Center
11:24AM 47.3833 -65.4833 246° West 450 518 35,000  Level Moncton Center
11:25AM 47.3333 -65.6333 244° Southwest 450 518 35,000  Level Moncton Center
11:26AM 47.2667 -65.8000 240° Southwest 450 518 35,000  Level Moncton Center
11:27AM 47.2167 -65.9500 244° Southwest 430 495 35,000  Level Moncton Center
11:28AM 47.1500 -66.1500 244° Southwest 460 529 35,000  Level Moncton Center
11:29AM 47.1000 -66.3167 246° West 450 518 35,000  Level Moncton Center
11:30AM 47.0500 -66.4833 246° West 450 518 35,000  Level Moncton Center
11:31AM 46.9833 -66.6500 240° Southwest 450 518 35,000  Level Moncton Center
11:37AM 46.8000 -67.6630 240° Southwest 473 544 35,000  Level FlightAware
11:37AM 46.7850 -67.7940 261° West 474 545 35,000 -60 Level FlightAware
11:39AM 46.7570 -68.0080 259° West 475 547 34,900 -540 Descending FlightAware
11:39AM 46.7400 -68.1470 260° West 475 547 34,000 -660 Descending FlightAware
11:40AM 46.7240 -68.2650 259° West 478 550 34,000  Level FlightAware
11:43AM 46.6630 -68.7360 259° West 477 549 34,000  Level FlightAware
11:43AM 46.6420 -68.8950 259° West 34,000  Level FlightAware
11:44AM 46.6230 -69.0370 259° West 34,000  Level FlightAware
11:45AM 46.6060 -69.1560 258° West 34,000  Level FlightAware
11:46AM 46.5900 -69.2760 259° West 34,000  Level FlightAware
11:46AM 46.5710 -69.4110 258° West 34,000  Level FlightAware
11:47AM 46.5550 -69.5300 259° West 34,000  Level FlightAware
11:48AM 46.5360 -69.6640 258° West 34,000  Level FlightAware
11:48AM 46.5190 -69.7810 258° West 34,000  Level FlightAware
11:49AM 46.5010 -69.9060 258° West 34,000  Level FlightAware
11:50AM 46.4820 -70.0400 258° West 34,000  Level FlightAware
11:50AM 46.4640 -70.1610 258° West 34,000  Level FlightAware
11:51AM 46.4450 -70.2950 258° West 34,000  Level FlightAware
11:52AM 46.4270 -70.4150 258° West 34,000  Level FlightAware
11:53AM 46.4070 -70.5500 258° West 34,000  Level FlightAware
11:53AM 46.3890 -70.6690 258° West 34,000  Level FlightAware
11:54AM 46.3700 -70.7900 257° West 34,000  Level FlightAware
11:55AM 46.3500 -70.9250 258° West 34,000  Level FlightAware
11:55AM 46.3310 -71.0450 257° West 34,000  Level FlightAware
11:56AM 46.3130 -71.1630 258° West 34,000  Level FlightAware
11:57AM 46.2910 -71.3010 257° West 34,000  Level FlightAware
11:57AM 46.2730 -71.4200 258° West 34,000  Level FlightAware
11:58AM 46.2510 -71.5550 257° West 34,000  Level FlightAware
11:59AM 46.2320 -71.6750 257° West 34,000  Level FlightAware
12:00PM 46.2130 -71.7940 257° West 34,000  Level FlightAware
12:00PM 46.1910 -71.9290 257° West 34,000  Level FlightAware
12:01PM 46.1710 -72.0490 257° West 34,000  Level FlightAware
12:02PM 46.1520 -72.1690 257° West 34,000  Level FlightAware
12:02PM 46.1300 -72.3020 257° West 34,000  Level FlightAware
12:03PM 46.1070 -72.4400 257° West 34,000  Level FlightAware
12:04PM 46.0870 -72.5590 256° West 34,000  Level FlightAware
12:04PM 46.0670 -72.6770 256° West 34,000  Level FlightAware
12:05PM 46.0440 -72.8140 256° West 34,000  Level FlightAware
12:06PM 46.0230 -72.9330 256° West 34,000  Level FlightAware
12:07PM 46.0000 -73.0660 256° West 34,000  Level FlightAware
12:07PM 45.9790 -73.1850 256° West 34,000  Level FlightAware
12:08PM 45.9580 -73.3060 256° West 34,000  Level FlightAware
12:09PM 45.9340 -73.4410 256° West 34,000  Level FlightAware
12:09PM 45.9130 -73.5590 256° West 34,000  Level FlightAware
12:10PM 45.8920 -73.6800 256° West 34,000  Level FlightAware
12:11PM 45.8680 -73.8110 255° West 34,000  Level FlightAware
12:11PM 45.8460 -73.9310 255° West 34,000  Level FlightAware
12:12PM 45.8230 -74.0610 256° West 34,000  Level FlightAware
12:13PM 45.8010 -74.1790 255° West 34,000  Level FlightAware
12:14PM 45.7760 -74.3150 255° West 34,000  Level FlightAware
12:14PM 45.7530 -74.4350 255° West 34,000  Level FlightAware
12:15PM 45.7310 -74.5510 255° West 34,000  Level FlightAware
12:16PM 45.7070 -74.6800 255° West 34,000  Level FlightAware
12:16PM 45.6850 -74.7980 255° West 34,000  Level FlightAware
12:17PM 45.6620 -74.9190 255° West 34,000  Level FlightAware
12:18PM 45.6350 -75.0560 254° West 34,000  Level FlightAware
12:18PM 45.6120 -75.1730 254° West 34,000  Level FlightAware
12:22PM 45.4910 -75.7860 254° West 34,000  Level FlightAware
12:23PM 45.4650 -75.9140 254° West 34,000  Level FlightAware
12:25PM 45.3670 -76.3770 253° West 478 550 34,000  Level FlightAware
12:26PM 45.3380 -76.5000 251° West 477 549 34,000  Level FlightAware
12:27PM 45.3120 -76.6080 251° West 476 548 34,000  Level FlightAware
12:28PM 45.2840 -76.7270 252° West 475 547 34,000  Level FlightAware
12:28PM 45.2540 -76.8560 252° West 474 545 34,000  Level FlightAware
12:29PM 45.2270 -76.9680 251° West 473 544 34,000  Level FlightAware
12:30PM 45.1970 -77.0930 251° West 474 545 34,000  Level FlightAware
12:30PM 45.1690 -77.2090 251° West 474 545 34,000  Level FlightAware
12:31PM 45.1420 -77.3210 251° West 476 548 34,000  Level FlightAware
12:32PM 45.1110 -77.4500 251° West 475 547 34,000  Level FlightAware
12:32PM 45.0830 -77.5630 251° West 475 547 34,000  Level FlightAware
12:33PM 45.0520 -77.6880 251° West 475 547 34,000  Level FlightAware
12:34PM 45.0240 -77.8020 251° West 474 545 34,000  Level FlightAware
12:35PM 44.9950 -77.9160 250° West 476 548 34,000  Level FlightAware
12:35PM 44.9640 -78.0410 251° West 475 547 34,000  Level FlightAware
12:36PM 44.9390 -78.1420 251° West 474 545 34,000  Level FlightAware
12:37PM 44.9060 -78.2710 250° West 475 547 34,000  Level FlightAware
12:37PM 44.8730 -78.4020 250° West 475 547 34,000  Level FlightAware
12:38PM 44.8440 -78.5150 250° West 476 548 34,000  Level FlightAware
12:39PM 44.8120 -78.6370 250° West 477 549 34,000  Level FlightAware
12:39PM 44.7800 -78.7590 250° West 478 550 34,000  Level FlightAware
12:40PM 44.7380 -78.8820 244° Southwest 477 549 34,000  Level FlightAware
12:41PM 44.6970 -78.9940 243° Southwest 478 550 34,000  Level FlightAware
12:42PM 44.6570 -79.1020 243° Southwest 479 551 34,000  Level FlightAware
12:42PM 44.6210 -79.2000 243° Southwest 478 550 34,000  Level FlightAware
12:43PM 44.5710 -79.3360 243° Southwest 480 552 34,000  Level FlightAware
12:44PM 44.5310 -79.4450 243° Southwest 481 554 34,000  Level FlightAware
12:44PM 44.4840 -79.5710 242° Southwest 482 555 34,000  Level FlightAware
12:45PM 44.4420 -79.6820 242° Southwest 484 557 34,000  Level FlightAware
12:46PM 44.4000 -79.7940 242° Southwest 485 558 34,000  Level FlightAware
12:46PM 44.3560 -79.9120 242° Southwest 484 557 34,000  Level FlightAware
12:47PM 44.3120 -80.0260 242° Southwest 482 555 34,000  Level FlightAware
12:48PM 44.2650 -80.1500 242° Southwest 480 552 34,000  Level FlightAware
12:49PM 44.2250 -80.2550 242° Southwest 479 551 34,000  Level FlightAware
12:49PM 44.1820 -80.3670 242° Southwest 477 549 34,000  Level FlightAware
12:50PM 44.1350 -80.4890 242° Southwest 475 547 34,000  Level FlightAware
12:51PM 44.0950 -80.5940 242° Southwest 476 548 34,000  Level FlightAware
12:51PM 44.0470 -80.7170 242° Southwest 475 547 34,000  Level FlightAware
12:52PM 44.0060 -80.8230 242° Southwest 475 547 34,000  Level FlightAware
12:53PM 43.9650 -80.9280 242° Southwest 475 547 34,000  Level FlightAware
12:53PM 43.9150 -81.0540 241° Southwest 475 547 34,000  Level FlightAware
12:54PM 43.8670 -81.1760 241° Southwest 476 548 34,000  Level FlightAware
12:55PM 43.8240 -81.2840 241° Southwest 475 547 34,000  Level FlightAware
12:56PM 43.7790 -81.3980 241° Southwest 475 547 34,000  Level FlightAware
12:56PM 43.7350 -81.5080 241° Southwest 474 545 34,000  Level FlightAware
12:57PM 43.6900 -81.6200 241° Southwest 472 543 34,000  Level FlightAware
12:58PM 43.6440 -81.7350 241° Southwest 463 533 34,000  Level FlightAware
12:58PM 43.6000 -81.8440 241° Southwest 459 528 34,000  Level FlightAware
12:59PM 43.5570 -81.9510 241° Southwest 460 529 34,000 -660 Level FlightAware
01:00PM 43.5120 -82.0610 241° Southwest 34,000 -660 Level FlightAware
01:00PM 43.4730 -82.1570 241° Southwest 34,000 -660 Level FlightAware
01:01PM 43.4280 -82.2670 241° Southwest 34,000 -660 Level FlightAware
01:02PM 43.3830 -82.3750 240° Southwest 34,000 -660 Level FlightAware
01:02PM 43.3420 -82.4740 240° Southwest 34,000 -660 Level FlightAware
01:03PM 43.2920 -82.5950 240° Southwest 34,000 -660 Level FlightAware
01:04PM 43.2440 -82.7220 243° Southwest 34,000 -720 Level FlightAware
01:05PM 43.2140 -82.8300 249° West 33,100 -720 Descending FlightAware
01:05PM 43.1820 -82.9450 249° West 32,100 -720 Descending FlightAware
01:06PM 43.1530 -83.0610 251° West 32,000 -660 Descending FlightAware
01:07PM 43.1370 -83.1430 255° West 32,000 -720 Level FlightAware
01:07PM 43.1150 -83.2780 257° West 32,000 -720 Level FlightAware
01:08PM 43.0980 -83.3860 258° West 32,000 -720 Level FlightAware
01:09PM 43.0740 -83.5330 257° West 32,000 -720 Level FlightAware
01:09PM 43.0570 -83.6400 258° West 32,000 -720 Level FlightAware
01:10PM 43.0390 -83.7500 257° West 32,000 -720 Level FlightAware
01:11PM 43.0130 -83.9080 257° West 32,000 -780 Level FlightAware
01:12PM 42.9910 -84.0430 257° West 32,000 -780 Level FlightAware
01:12PM 42.9720 -84.1570 257° West 32,000 -780 Level FlightAware
01:13PM 42.9510 -84.2840 257° West 32,000 -780 Level FlightAware
01:14PM 42.9310 -84.4010 257° West 32,000 -840 Level FlightAware
01:14PM 42.9120 -84.5130 257° West 32,000 -840 Level FlightAware
01:15PM 42.8920 -84.6300 257° West 32,000 -840 Level FlightAware
01:16PM 42.8690 -84.7620 257° West 32,000 -840 Level FlightAware
01:17PM 42.8500 -84.8770 257° West 32,000 -900 Level FlightAware
01:17PM 42.8340 -85.0060 260° West 32,000 -900 Level FlightAware
01:18PM 42.8200 -85.1390 262° West 31,700 -900 Descending FlightAware
01:19PM 42.8080 -85.2510 262° West 30,100 -900 Descending FlightAware
01:19PM 42.7950 -85.3720 262° West 28,700 -900 Descending FlightAware
01:20PM 42.7780 -85.5000 260° West 27,100 -840 Descending FlightAware
01:21PM 42.7590 -85.6100 257° West 25,500 -840 Descending FlightAware
01:21PM 42.7400 -85.7180 257° West 23,900 -780 Descending FlightAware
01:22PM 42.7180 -85.8330 255° West 22,200 -780 Descending FlightAware
01:23PM 42.7000 -85.9370 257° West 20,700 -720 Descending FlightAware
01:24PM 42.6790 -86.0520 256° West 20,000 -720 Descending FlightAware
01:24PM 42.6600 -86.1520 256° West 20,000 -660 Level FlightAware
01:25PM 42.6420 -86.2520 256° West 20,000 -720 Level FlightAware
01:26PM 42.6240 -86.3500 256° West 20,000 -720 Level FlightAware
01:26PM 42.6030 -86.4590 255° West 18,400 -720 Descending FlightAware
01:27PM 42.5830 -86.5680 256° West 16,900 -720 Descending FlightAware
01:28PM 42.5670 -86.6530 256° West 15,700 -660 Descending FlightAware
01:29PM 42.5430 -86.7560 252° West 14,200 -600 Descending FlightAware
01:29PM 42.5180 -86.8490 250° West 12,800 -600 Descending FlightAware
01:30PM 42.4940 -86.9360 250° West 11,400 -540 Descending FlightAware
01:31PM 42.4710 -87.0200 250° West 10,300 -480 Descending FlightAware
01:31PM 42.4570 -87.0720 250° West 9,900 -480 Descending FlightAware
01:31PM 42.4460 -87.1120 250° West 9,900 -420 Level FlightAware
01:32PM 42.4280 -87.1770 249° West 9,900 -480 Level FlightAware
01:32PM 42.4140 -87.2280 250° West 9,900 -480 Level FlightAware
01:32PM 42.4090 -87.2480 251° West 9,900 -480 Level FlightAware
01:33PM 42.3890 -87.3210 250° West 9,900 -480 Level FlightAware
01:33PM 42.3810 -87.3480 248° West 9,900 -480 Level FlightAware
01:34PM 42.3650 -87.4030 249° West 9,900 -480 Level FlightAware
01:34PM 42.3530 -87.4260 235° Southwest 9,900 -480 Level FlightAware
01:34PM 42.3120 -87.4710 219° Southwest 9,900 -540 Level FlightAware
01:35PM 42.2780 -87.5040 216° Southwest 9,900 -540 Level FlightAware
01:35PM 42.2570 -87.5260 218° Southwest 9,900 -540 Level FlightAware
01:36PM 42.2190 -87.5630 216° Southwest 9,900 -540 Level FlightAware
01:36PM 42.1940 -87.5880 217° Southwest 9,900 -540 Level FlightAware
01:36PM 42.1520 -87.6300 217° Southwest 9,800 -540 Descending FlightAware
01:37PM 42.1220 -87.6600 217° Southwest 9,300 -600 Descending FlightAware
01:37PM 42.0890 -87.6920 216° Southwest 8,700 -540 Descending FlightAware
01:38PM 42.0720 -87.7090 217° Southwest 8,300 -540 Descending FlightAware
01:38PM 42.0440 -87.7370 217° Southwest 7,900 -540 Descending FlightAware
01:39PM 42.0150 -87.7740 223° Southwest 7,900 -540 Level FlightAware
01:39PM 41.9930 -87.8050 226° Southwest 7,900 -540 Level FlightAware
01:39PM 41.9660 -87.8420 226° Southwest 7,900 -540 Level FlightAware
01:40PM 41.9410 -87.8780 227° Southwest 7,900 -540 Level FlightAware
01:40PM 41.9220 -87.9040 226° Southwest 7,900 -600 Level FlightAware
01:41PM 41.8980 -87.9370 226° Southwest 7,900 -600 Level FlightAware
01:41PM 41.8830 -87.9740 241° Southwest 7,900 -600 Level FlightAware
01:42PM 41.8830 -87.9880 270° West 7,800 -660 Descending FlightAware
01:42PM 41.8860 -88.0250 276° West 7,900 -660 Climbing FlightAware
01:42PM 41.8910 -88.0530 283° West 7,500 -660 Descending FlightAware
01:43PM 41.8990 -88.0890 287° West 6,900 -660 Descending FlightAware
01:43PM 41.9030 -88.1040 290° West 6,600 -660 Descending FlightAware
01:44PM 41.9060 -88.1300 279° West 6,200 -660 Descending FlightAware
01:44PM 41.9050 -88.1700 268° West 5,600 -600 Descending FlightAware
01:45PM 41.9030 -88.2180 267° West 4,900 -600 Descending FlightAware
01:45PM 41.9020 -88.2370 266° West 4,900 -540 Level FlightAware
01:46PM 41.9100 -88.2850 283° West 5,000 -540 Climbing FlightAware
01:46PM 41.9220 -88.2890 346° North 4,900 -600 Descending FlightAware
01:46PM 41.9310 -88.2890 360° North 4,900 -660 Level FlightAware
01:47PM 41.9510 -88.2900 358° North 4,900 -660 Level FlightAware
01:47PM 41.9670 -88.2690 44° Northeast 4,900 -720 Level FlightAware
01:48PM 41.9650 -88.2330 94° East 4,900 -720 Level FlightAware
01:49PM 41.9660 -88.1730 89° East 4,600 -840 Descending FlightAware
01:49PM 41.9660 -88.1430 90° East 4,000 -900 Descending FlightAware
01:49PM 41.9660 -88.1170 90° East 3,600 -900 Descending FlightAware
01:50PM 41.9670 -88.0840 88° East 3,100 -840 Descending FlightAware
01:50PM 41.9670 -88.0570 90° East 2,700 -840 Descending FlightAware
01:51PM 41.9670 -88.0430 90° East 2,500 -780 Descending FlightAware
01:51PM 41.9670 -88.0140 90° East 2,100 -780 Descending FlightAware
01:52PM 41.9670 -87.9930 90° East 1,800 -780 Descending FlightAware
01:52PM 41.9670 -87.9640 90° East 1,400 -780 Descending FlightAware
01:52PM 41.9670 -87.9520 90° East 1,200 -780 Descending FlightAware
01:53PM 41.9670 -87.9300 90° East 900 -780 Descending FlightAware
01:53PM 41.9670 -87.9170 90° East 700 -840 Descending FlightAware